San Angelo's Hourly Summary for Sunday, May 13, 2018
Hour Temp
(f)
RH
(%)
Solar Rad.
(MJ/m2)
Rainfall
(in)
Wind
(mph)
5/13/2018 12:00 AM 81 50 0 0 8.71
5/13/2018 1:00 AM 79 53 0 0 6.88
5/13/2018 2:00 AM 78 56 0 0 7.06
5/13/2018 3:00 AM 76 58 0 0 9.74
5/13/2018 4:00 AM 74 67 0 0 8.63
5/13/2018 5:00 AM 74 72 0 0 8.61
5/13/2018 6:00 AM 74 73 0 0 7.84
5/13/2018 7:00 AM 75 73 0 0 9.19
5/13/2018 8:00 AM 74 73 0.04 0 7.74
5/13/2018 9:00 AM 75 72 0.19 0 7.97
5/13/2018 10:00 AM 76 66 0.57 0 10.78
5/13/2018 11:00 AM 77 61 0.76 0 10.41
5/13/2018 12:00 PM 79 57 1.46 0 10.22
5/13/2018 1:00 PM 82 50 2.76 0 10.13
5/13/2018 2:00 PM 84 48 2.83 0 10.78
5/13/2018 3:00 PM 85 45 2.52 0 10.8
5/13/2018 4:00 PM 86 43 2.01 0 8.98
5/13/2018 5:00 PM 88 40 2.16 0 8.22
5/13/2018 6:00 PM 88 40 1.19 0 8.24
5/13/2018 7:00 PM 85 43 0.38 0 12.21
5/13/2018 8:00 PM 85 44 0.19 0 8.87
5/13/2018 9:00 PM 84 45 0.03 0 9.92
5/13/2018 10:00 PM 83 46 0 0 7.49
5/13/2018 11:00 PM 81 49 0 0 8.47
Data Summary 80 55 17.09 0.00 9.08